Terminal Aerodrome Forecast
Issued by NWS Amarillo, TX

Home | Current Version | Previous Version | Text Only | Print | Product List | Glossary On
Versions: 1 2 3 4 5 6 7 8 9 10 11 12 13 14
598
FTUS44 KAMA 251720
TAFGUY
TAF
KGUY 251720Z 2518/2618 35015G24KT P6SM SKC
     FM260100 VRB03KT P6SM SKC
     FM261500 35023G32KT P6SM SCT250=

USA.gov is the U.S. government's official web portal to all federal, state and local government web resources and services.